Time,TemperatureF,DewpointF,PressureIn,WindDirection,WindDirectionDegrees,WindSpeedMPH,WindSpeedGustMPH,Humidity,HourlyPrecipIn,Conditions,Clouds,dailyrainin,SoftwareType,DateUTC
2013-01-27 00:03:00,22.1,-16.0,28.94,West,277,4.0,4.0,17,0.00,,,0.00,VWS V13.01,2013-01-27 06:03:00,
2013-01-27 00:08:00,22.1,-16.0,28.94,West,276,4.9,5.4,17,0.00,,,0.00,VWS V13.01,2013-01-27 06:08:00,
2013-01-27 00:13:00,22.1,-16.0,28.94,West,280,5.8,5.8,17,0.00,,,0.00,VWS V13.01,2013-01-27 06:13:00,
2013-01-27 00:18:00,22.5,-15.8,28.94,WNW,291,6.3,8.3,17,0.00,,,0.00,VWS V13.01,2013-01-27 06:18:00,
2013-01-27 00:23:00,22.1,-16.0,28.91,WNW,300,6.3,6.3,17,0.00,,,0.00,VWS V13.01,2013-01-27 06:23:00,
2013-01-27 00:28:00,22.3,-15.9,28.91,West,279,4.0,8.3,17,0.00,,,0.00,VWS V13.01,2013-01-27 06:28:00,
2013-01-27 00:33:00,22.3,-15.9,28.91,WNW,290,5.4,6.3,17,0.00,,,0.00,VWS V13.01,2013-01-27 06:33:00,
2013-01-27 00:38:00,22.3,-15.9,28.91,WNW,298,5.4,5.8,17,0.00,,,0.00,VWS V13.01,2013-01-27 06:38:00,
2013-01-27 00:43:00,22.3,-15.9,28.91,WNW,288,7.6,7.6,17,0.00,,,0.00,VWS V13.01,2013-01-27 06:43:00,
2013-01-27 00:48:00,22.5,-15.8,28.91,WNW,282,5.8,7.6,17,0.00,,,0.00,VWS V13.01,2013-01-27 06:48:00,
2013-01-27 00:53:00,22.5,-15.8,28.91,WNW,291,5.8,6.3,17,0.00,,,0.00,VWS V13.01,2013-01-27 06:53:00,
2013-01-27 00:58:00,22.3,-15.9,28.91,WNW,288,6.7,6.7,17,0.00,,,0.00,VWS V13.01,2013-01-27 06:58:00,
2013-01-27 01:03:00,22.6,-15.6,28.91,WNW,291,8.7,8.7,17,0.00,,,0.00,VWS V13.01,2013-01-27 07:03:00,
2013-01-27 01:08:00,22.3,-15.9,28.91,West,277,3.6,4.0,17,0.00,,,0.00,VWS V13.01,2013-01-27 07:08:00,
2013-01-27 01:13:00,22.6,-15.6,28.91,WNW,285,3.6,8.1,17,0.00,,,0.00,VWS V13.01,2013-01-27 07:13:00,
2013-01-27 01:18:00,22.5,-15.8,28.91,West,272,4.5,5.4,17,0.00,,,0.00,VWS V13.01,2013-01-27 07:18:00,
2013-01-27 01:23:00,22.5,-15.8,28.91,West,260,5.4,5.4,17,0.00,,,0.00,VWS V13.01,2013-01-27 07:23:00,
2013-01-27 01:28:00,22.6,-15.6,28.91,West,277,4.9,5.4,17,0.00,,,0.00,VWS V13.01,2013-01-27 07:28:00,
2013-01-27 01:33:00,22.8,-15.4,28.91,WNW,286,5.8,5.8,17,0.00,,,0.00,VWS V13.01,2013-01-27 07:33:00,
2013-01-27 01:38:00,23.0,-15.3,28.91,West,260,4.5,5.4,17,0.00,,,0.00,VWS V13.01,2013-01-27 07:38:00,
2013-01-27 01:43:00,23.0,-15.3,28.91,West,277,4.0,4.9,17,0.00,,,0.00,VWS V13.01,2013-01-27 07:43:00,
2013-01-27 01:48:00,23.5,-14.9,28.91,WNW,288,3.6,5.4,17,0.00,,,0.00,VWS V13.01,2013-01-27 07:48:00,
2013-01-27 01:53:00,23.4,-15.0,28.91,West,276,4.9,5.8,17,0.00,,,0.00,VWS V13.01,2013-01-27 07:53:00,
2013-01-27 01:58:00,23.5,-14.9,28.91,West,265,3.6,5.8,17,0.00,,,0.00,VWS V13.01,2013-01-27 07:58:00,
2013-01-27 02:03:00,23.4,-15.0,28.91,West,272,6.3,6.3,17,0.00,,,0.00,VWS V13.01,2013-01-27 08:03:00,
2013-01-27 02:08:00,23.5,-14.9,28.91,West,273,3.1,4.0,17,0.00,,,0.00,VWS V13.01,2013-01-27 08:08:00,
2013-01-27 02:13:00,23.4,-15.0,28.91,West,276,4.0,4.0,17,0.00,,,0.00,VWS V13.01,2013-01-27 08:13:00,
2013-01-27 02:18:00,23.5,-14.9,28.91,West,266,3.1,5.8,17,0.00,,,0.00,VWS V13.01,2013-01-27 08:18:00,
2013-01-27 02:23:00,23.5,-14.9,28.91,WNW,282,3.1,3.1,17,0.00,,,0.00,VWS V13.01,2013-01-27 08:23:00,
2013-01-27 02:28:00,23.5,-14.9,28.91,West,281,4.5,5.4,17,0.00,,,0.00,VWS V13.01,2013-01-27 08:28:00,
2013-01-27 02:33:00,23.2,-15.2,28.91,WNW,285,4.5,4.5,17,0.00,,,0.00,VWS V13.01,2013-01-27 08:33:00,
2013-01-27 02:38:00,23.7,-14.7,28.91,WNW,302,5.8,5.8,17,0.00,,,0.00,VWS V13.01,2013-01-27 08:38:00,
2013-01-27 02:43:00,24.4,-14.1,28.91,WNW,291,5.4,5.8,17,0.00,,,0.00,VWS V13.01,2013-01-27 08:43:00,
2013-01-27 02:48:00,24.3,-14.3,28.91,West,272,4.5,4.5,17,0.00,,,0.00,VWS V13.01,2013-01-27 08:48:00,
2013-01-27 02:53:00,24.4,-14.1,28.88,WNW,285,5.4,5.4,17,0.00,,,0.00,VWS V13.01,2013-01-27 08:53:00,
2013-01-27 02:58:00,24.1,-14.4,28.88,West,280,4.0,4.9,17,0.00,,,0.00,VWS V13.01,2013-01-27 08:58:00,
2013-01-27 03:03:00,24.4,-14.1,28.88,WNW,298,4.0,5.4,17,0.00,,,0.00,VWS V13.01,2013-01-27 09:03:00,
2013-01-27 03:08:00,24.3,-14.3,28.88,West,273,5.4,5.4,17,0.00,,,0.00,VWS V13.01,2013-01-27 09:08:00,
2013-01-27 03:13:00,24.3,-14.3,28.88,West,272,5.8,5.8,17,0.00,,,0.00,VWS V13.01,2013-01-27 09:13:00,
2013-01-27 03:18:00,24.3,-14.3,28.88,West,276,5.4,5.4,17,0.00,,,0.00,VWS V13.01,2013-01-27 09:18:00,
2013-01-27 03:23:00,24.1,-14.4,28.88,West,272,4.0,4.9,17,0.00,,,0.00,VWS V13.01,2013-01-27 09:23:00,
2013-01-27 03:28:00,24.1,-14.4,28.88,West,269,6.3,6.3,17,0.00,,,0.00,VWS V13.01,2013-01-27 09:28:00,
2013-01-27 03:33:00,24.1,-14.4,28.88,West,269,4.9,6.3,17,0.00,,,0.00,VWS V13.01,2013-01-27 09:33:00,
2013-01-27 03:38:00,24.3,-14.3,28.88,West,279,5.4,5.4,17,0.00,,,0.00,VWS V13.01,2013-01-27 09:38:00,
2013-01-27 03:43:00,23.7,-14.7,28.88,West,272,3.6,3.6,17,0.00,,,0.00,VWS V13.01,2013-01-27 09:43:00,
2013-01-27 03:48:00,23.7,-14.7,28.88,West,270,4.0,4.0,17,0.00,,,0.00,VWS V13.01,2013-01-27 09:48:00,
2013-01-27 03:53:00,23.9,-14.6,28.85,West,276,3.6,4.9,17,0.00,,,0.00,VWS V13.01,2013-01-27 09:53:00,
2013-01-27 03:58:00,23.7,-14.7,28.85,West,263,4.0,4.0,17,0.00,,,0.00,VWS V13.01,2013-01-27 09:58:00,
2013-01-27 04:03:00,24.1,-14.4,28.85,West,271,5.4,5.4,17,0.00,,,0.00,VWS V13.01,2013-01-27 10:03:00,
2013-01-27 04:08:00,24.1,-14.4,28.85,WNW,297,3.1,5.4,17,0.00,,,0.00,VWS V13.01,2013-01-27 10:08:00,
2013-01-27 04:13:00,24.4,-14.1,28.85,West,271,5.8,6.3,17,0.00,,,0.00,VWS V13.01,2013-01-27 10:13:00,
2013-01-27 04:18:00,24.1,-14.4,28.85,WSW,254,3.1,5.8,17,0.00,,,0.00,VWS V13.01,2013-01-27 10:18:00,
2013-01-27 04:23:00,23.5,-14.9,28.85,West,271,2.2,3.1,17,0.00,,,0.00,VWS V13.01,2013-01-27 10:23:00,
2013-01-27 04:28:00,23.2,-15.2,28.85,WSW,256,2.2,2.2,17,0.00,,,0.00,VWS V13.01,2013-01-27 10:28:00,
2013-01-27 04:33:00,22.8,-15.4,28.85,WSW,246,2.2,2.7,17,0.00,,,0.00,VWS V13.01,2013-01-27 10:33:00,
2013-01-27 04:38:00,22.8,-15.4,28.85,WSW,256,2.7,2.7,17,0.00,,,0.00,VWS V13.01,2013-01-27 10:38:00,
2013-01-27 04:43:00,23.0,-15.3,28.85,WSW,245,2.7,3.1,17,0.00,,,0.00,VWS V13.01,2013-01-27 10:43:00,
2013-01-27 04:48:00,23.4,-15.0,28.85,West,274,3.1,3.1,17,0.00,,,0.00,VWS V13.01,2013-01-27 10:48:00,
2013-01-27 04:53:00,23.5,-14.9,28.85,West,266,4.0,4.9,17,0.00,,,0.00,VWS V13.01,2013-01-27 10:53:00,
2013-01-27 04:58:00,23.5,-14.9,28.85,West,267,3.1,3.1,17,0.00,,,0.00,VWS V13.01,2013-01-27 10:58:00,
2013-01-27 05:03:00,23.7,-14.7,28.85,West,270,3.6,4.0,17,0.00,,,0.00,VWS V13.01,2013-01-27 11:03:00,
2013-01-27 05:08:00,23.7,-14.7,28.85,West,265,3.1,4.0,17,0.00,,,0.00,VWS V13.01,2013-01-27 11:08:00,
2013-01-27 05:13:00,24.1,-14.4,28.85,West,281,5.4,5.4,17,0.00,,,0.00,VWS V13.01,2013-01-27 11:13:00,
2013-01-27 05:18:00,24.1,-14.4,28.85,West,262,3.1,4.9,17,0.00,,,0.00,VWS V13.01,2013-01-27 11:18:00,
2013-01-27 05:23:00,23.9,-14.6,28.85,West,281,4.0,4.0,17,0.00,,,0.00,VWS V13.01,2013-01-27 11:23:00,
2013-01-27 05:28:00,24.3,-14.3,28.85,WSW,253,3.1,3.1,17,0.00,,,0.00,VWS V13.01,2013-01-27 11:28:00,
2013-01-27 05:33:00,24.1,-14.4,28.85,West,261,2.7,3.6,17,0.00,,,0.00,VWS V13.01,2013-01-27 11:33:00,
2013-01-27 05:38:00,23.7,-14.7,28.85,West,259,3.6,3.6,17,0.00,,,0.00,VWS V13.01,2013-01-27 11:38:00,
2013-01-27 05:43:00,23.7,-14.7,28.82,WSW,241,2.2,2.2,17,0.00,,,0.00,VWS V13.01,2013-01-27 11:43:00,
2013-01-27 05:48:00,23.4,-15.0,28.82,WSW,257,0.0,2.7,17,0.00,,,0.00,VWS V13.01,2013-01-27 11:48:00,
2013-01-27 05:53:00,22.8,-15.4,28.85,WSW,253,0.0,0.0,17,0.00,,,0.00,VWS V13.01,2013-01-27 11:53:00,
2013-01-27 05:58:00,23.0,-15.3,28.85,WSW,239,0.0,0.0,17,0.00,,,0.00,VWS V13.01,2013-01-27 11:58:00,
2013-01-27 06:03:00,23.5,-14.9,28.85,SW,236,2.7,2.7,17,0.00,,,0.00,VWS V13.01,2013-01-27 12:03:00,
2013-01-27 06:08:00,23.9,-14.6,28.82,WSW,247,2.7,3.1,17,0.00,,,0.00,VWS V13.01,2013-01-27 12:08:00,
2013-01-27 06:13:00,24.3,-14.3,28.82,West,266,0.0,0.0,17,0.00,,,0.00,VWS V13.01,2013-01-27 12:13:00,
2013-01-27 06:18:00,24.4,-14.1,28.82,WSW,241,2.2,3.1,17,0.00,,,0.00,VWS V13.01,2013-01-27 12:18:00,
2013-01-27 06:23:00,25.0,-14.9,28.82,West,280,4.0,4.0,16,0.00,,,0.00,VWS V13.01,2013-01-27 12:23:00,
2013-01-27 06:28:00,25.2,-14.7,28.82,West,266,4.0,4.0,16,0.00,,,0.00,VWS V13.01,2013-01-27 12:28:00,
2013-01-27 06:33:00,25.5,-14.4,28.82,West,274,4.0,5.4,16,0.00,,,0.00,VWS V13.01,2013-01-27 12:33:00,
2013-01-27 06:38:00,25.5,-14.4,28.82,West,263,4.0,4.0,16,0.00,,,0.00,VWS V13.01,2013-01-27 12:38:00,
2013-01-27 06:43:00,25.9,-14.1,28.82,WNW,285,4.9,4.9,16,0.00,,,0.00,VWS V13.01,2013-01-27 12:43:00,
2013-01-27 06:48:00,26.1,-14.0,28.82,West,272,6.3,6.3,16,0.00,,,0.00,VWS V13.01,2013-01-27 12:48:00,
2013-01-27 06:53:00,26.2,-13.8,28.82,West,277,4.0,4.0,16,0.00,,,0.00,VWS V13.01,2013-01-27 12:53:00,
2013-01-27 06:58:00,26.4,-13.7,28.82,WNW,287,4.0,4.9,16,0.00,,,0.00,VWS V13.01,2013-01-27 12:58:00,
2013-01-27 07:03:00,27.5,-12.8,28.82,WNW,285,6.7,7.6,16,0.00,,,0.00,VWS V13.01,2013-01-27 13:03:00,
2013-01-27 07:08:00,27.5,-12.8,28.82,WNW,288,6.3,6.3,16,0.00,,,0.00,VWS V13.01,2013-01-27 13:08:00,
2013-01-27 07:13:00,27.9,-12.5,28.82,NW,318,5.4,7.6,16,0.00,,,0.00,VWS V13.01,2013-01-27 13:13:00,
2013-01-27 07:18:00,27.9,-12.5,28.82,WNW,285,8.7,8.7,16,0.00,,,0.00,VWS V13.01,2013-01-27 13:18:00,
2013-01-27 07:23:00,27.9,-12.5,28.82,WNW,298,9.2,9.2,16,0.00,,,0.00,VWS V13.01,2013-01-27 13:23:00,
2013-01-27 07:28:00,28.2,-12.2,28.82,WNW,290,6.7,6.7,16,0.00,,,0.00,VWS V13.01,2013-01-27 13:28:00,
2013-01-27 07:33:00,28.4,-12.1,28.82,WNW,290,7.6,7.6,16,0.00,,,0.00,VWS V13.01,2013-01-27 13:33:00,
2013-01-27 07:38:00,28.6,-13.2,28.82,WNW,296,6.3,6.7,15,0.00,,,0.00,VWS V13.01,2013-01-27 13:38:00,
2013-01-27 07:43:00,28.4,-12.1,28.82,West,272,3.6,4.9,16,0.00,,,0.00,VWS V13.01,2013-01-27 13:43:00,
2013-01-27 07:48:00,27.7,-12.6,28.82,West,261,3.6,4.0,16,0.00,,,0.00,VWS V13.01,2013-01-27 13:48:00,
2013-01-27 07:53:00,27.5,-12.8,28.82,West,281,5.8,5.8,16,0.00,,,0.00,VWS V13.01,2013-01-27 13:53:00,
2013-01-27 07:58:00,27.3,-12.9,28.82,West,267,4.0,4.0,16,0.00,,,0.00,VWS V13.01,2013-01-27 13:58:00,
2013-01-27 08:03:00,27.7,-12.6,28.82,WNW,288,4.9,5.4,16,0.00,,,0.00,VWS V13.01,2013-01-27 14:03:00,
2013-01-27 08:08:00,27.9,-12.5,28.79,West,280,4.9,5.4,16,0.00,,,0.00,VWS V13.01,2013-01-27 14:08:00,
2013-01-27 08:13:00,28.2,-12.2,28.79,West,272,4.0,5.8,16,0.00,,,0.00,VWS V13.01,2013-01-27 14:13:00,
2013-01-27 08:18:00,28.2,-12.2,28.79,West,264,5.4,5.4,16,0.00,,,0.00,VWS V13.01,2013-01-27 14:18:00,
2013-01-27 08:23:00,28.6,-13.2,28.82,WNW,283,4.0,5.4,15,0.00,,,0.00,VWS V13.01,2013-01-27 14:23:00,
2013-01-27 08:28:00,28.6,-13.2,28.82,West,281,4.0,4.0,15,0.00,,,0.00,VWS V13.01,2013-01-27 14:28:00,
2013-01-27 08:33:00,28.9,-12.9,28.82,WNW,286,3.1,6.3,15,0.00,,,0.00,VWS V13.01,2013-01-27 14:33:00,
2013-01-27 08:38:00,29.3,-12.6,28.82,West,259,2.7,2.7,15,0.00,,,0.00,VWS V13.01,2013-01-27 14:38:00,
2013-01-27 08:43:00,29.5,-12.5,28.82,West,275,4.0,4.0,15,0.00,,,0.00,VWS V13.01,2013-01-27 14:43:00,
2013-01-27 08:48:00,29.7,-12.3,28.82,West,277,6.3,6.3,15,0.00,,,0.00,VWS V13.01,2013-01-27 14:48:00,
2013-01-27 08:53:00,30.0,-12.0,28.82,West,276,5.4,5.4,15,0.00,,,0.00,VWS V13.01,2013-01-27 14:53:00,
2013-01-27 08:58:00,30.2,-11.9,28.82,West,260,5.4,5.4,15,0.00,,,0.00,VWS V13.01,2013-01-27 14:58:00,
2013-01-27 09:03:00,30.4,-11.7,28.82,WNW,291,4.0,6.3,15,0.00,,,0.00,VWS V13.01,2013-01-27 15:03:00,
2013-01-27 09:08:00,30.7,-11.4,28.82,WNW,292,6.3,6.3,15,0.00,,,0.00,VWS V13.01,2013-01-27 15:08:00,
2013-01-27 09:13:00,31.1,-11.1,28.82,WNW,287,8.1,8.1,15,0.00,,,0.00,VWS V13.01,2013-01-27 15:13:00,
2013-01-27 09:18:00,31.1,-11.1,28.82,West,281,4.0,4.9,15,0.00,,,0.00,VWS V13.01,2013-01-27 15:18:00,
2013-01-27 09:23:00,31.5,-10.9,28.82,NW,311,10.5,10.5,15,0.00,,,0.00,VWS V13.01,2013-01-27 15:23:00,
2013-01-27 09:28:00,31.3,-11.0,28.82,West,270,7.2,7.6,15,0.00,,,0.00,VWS V13.01,2013-01-27 15:28:00,
2013-01-27 09:33:00,31.5,-10.9,28.82,NW,310,5.8,7.6,15,0.00,,,0.00,VWS V13.01,2013-01-27 15:33:00,
2013-01-27 09:38:00,31.6,-10.7,28.79,WNW,294,6.3,6.3,15,0.00,,,0.00,VWS V13.01,2013-01-27 15:38:00,
2013-01-27 09:43:00,31.8,-10.6,28.79,WNW,287,6.7,8.1,15,0.00,,,0.00,VWS V13.01,2013-01-27 15:43:00,
2013-01-27 09:48:00,31.8,-10.6,28.79,West,270,5.8,7.6,15,0.00,,,0.00,VWS V13.01,2013-01-27 15:48:00,
2013-01-27 09:53:00,32.0,-10.4,28.79,WNW,289,8.3,8.3,15,0.00,,,0.00,VWS V13.01,2013-01-27 15:53:00,
2013-01-27 09:58:00,32.0,-10.4,28.79,NW,311,10.1,10.1,15,0.00,,,0.00,VWS V13.01,2013-01-27 15:58:00,
2013-01-27 10:03:00,32.2,-10.3,28.79,WNW,291,7.2,7.6,15,0.00,,,0.00,VWS V13.01,2013-01-27 16:03:00,
2013-01-27 10:08:00,32.2,-10.3,28.79,West,281,6.7,6.7,15,0.00,,,0.00,VWS V13.01,2013-01-27 16:08:00,
2013-01-27 10:13:00,32.2,-10.3,28.79,NW,312,6.7,8.1,15,0.00,,,0.00,VWS V13.01,2013-01-27 16:13:00,
2013-01-27 10:18:00,32.2,-10.3,28.79,NW,310,7.6,8.7,15,0.00,,,0.00,VWS V13.01,2013-01-27 16:18:00,
2013-01-27 10:23:00,32.2,-10.3,28.79,WNW,289,10.1,10.1,15,0.00,,,0.00,VWS V13.01,2013-01-27 16:23:00,
2013-01-27 10:28:00,32.2,-10.3,28.79,WNW,303,9.6,9.6,15,0.00,,,0.00,VWS V13.01,2013-01-27 16:28:00,
2013-01-27 10:33:00,32.2,-10.3,28.79,WNW,293,5.4,7.6,15,0.00,,,0.00,VWS V13.01,2013-01-27 16:33:00,
2013-01-27 10:38:00,32.2,-10.3,28.79,West,277,8.3,8.3,15,0.00,,,0.00,VWS V13.01,2013-01-27 16:38:00,
2013-01-27 10:43:00,32.2,-10.3,28.79,WNW,296,8.1,8.1,15,0.00,,,0.00,VWS V13.01,2013-01-27 16:43:00,
2013-01-27 10:48:00,32.2,-10.3,28.79,West,265,6.3,6.3,15,0.00,,,0.00,VWS V13.01,2013-01-27 16:48:00,
2013-01-27 10:53:00,32.2,-10.3,28.79,West,280,6.3,6.3,15,0.00,,,0.00,VWS V13.01,2013-01-27 16:53:00,
2013-01-27 10:58:00,32.0,-10.4,28.79,West,281,8.3,8.7,15,0.00,,,0.00,VWS V13.01,2013-01-27 16:58:00,
2013-01-27 11:03:00,32.0,-10.4,28.79,West,281,5.8,8.3,15,0.00,,,0.00,VWS V13.01,2013-01-27 17:03:00,
2013-01-27 11:08:00,32.0,-10.4,28.79,WNW,294,7.2,8.7,15,0.00,,,0.00,VWS V13.01,2013-01-27 17:08:00,
2013-01-27 11:13:00,32.0,-10.4,28.79,West,276,8.3,10.1,15,0.00,,,0.00,VWS V13.01,2013-01-27 17:13:00,
2013-01-27 11:18:00,32.0,-10.4,28.79,West,277,7.6,8.7,15,0.00,,,0.00,VWS V13.01,2013-01-27 17:18:00,
2013-01-27 11:23:00,32.0,-10.4,28.79,West,266,8.1,11.0,15,0.00,,,0.00,VWS V13.01,2013-01-27 17:23:00,
2013-01-27 11:28:00,32.0,-10.4,28.79,WNW,297,6.7,7.2,15,0.00,,,0.00,VWS V13.01,2013-01-27 17:28:00,
2013-01-27 11:33:00,32.0,-10.4,28.79,West,269,5.8,6.3,15,0.00,,,0.00,VWS V13.01,2013-01-27 17:33:00,
2013-01-27 11:38:00,32.2,-10.3,28.79,WNW,289,8.7,10.1,15,0.00,,,0.00,VWS V13.01,2013-01-27 17:38:00,
2013-01-27 11:43:00,32.0,-10.4,28.79,WNW,291,5.8,7.6,15,0.00,,,0.00,VWS V13.01,2013-01-27 17:43:00,
2013-01-27 11:48:00,32.2,-10.3,28.79,West,271,4.0,8.3,15,0.00,,,0.00,VWS V13.01,2013-01-27 17:48:00,
2013-01-27 11:53:00,32.2,-10.3,28.79,West,281,6.3,6.3,15,0.00,,,0.00,VWS V13.01,2013-01-27 17:53:00,
2013-01-27 11:58:00,32.4,-10.1,28.76,West,279,5.4,5.4,15,0.00,,,0.00,VWS V13.01,2013-01-27 17:58:00,
2013-01-27 12:03:00,32.4,-10.1,28.76,WNW,288,7.6,7.6,15,0.00,,,0.00,VWS V13.01,2013-01-27 18:03:00,
2013-01-27 12:08:00,32.5,-10.0,28.76,WNW,301,8.3,8.3,15,0.00,,,0.00,VWS V13.01,2013-01-27 18:08:00,
2013-01-27 12:13:00,32.7,-9.8,28.76,WNW,285,6.3,6.7,15,0.00,,,0.00,VWS V13.01,2013-01-27 18:13:00,
2013-01-27 12:18:00,32.7,-9.8,28.76,WNW,295,8.3,8.3,15,0.00,,,0.00,VWS V13.01,2013-01-27 18:18:00,
2013-01-27 12:23:00,32.9,-9.7,28.76,West,268,5.4,5.8,15,0.00,,,0.00,VWS V13.01,2013-01-27 18:23:00,
2013-01-27 12:28:00,32.9,-9.7,28.76,West,279,7.6,9.6,15,0.00,,,0.00,VWS V13.01,2013-01-27 18:28:00,
2013-01-27 12:33:00,32.9,-9.7,28.76,NW,309,10.1,10.1,15,0.00,,,0.00,VWS V13.01,2013-01-27 18:33:00,
2013-01-27 12:38:00,33.1,-9.5,28.76,West,270,5.8,5.8,15,0.00,,,0.00,VWS V13.01,2013-01-27 18:38:00,
2013-01-27 12:43:00,32.7,-9.8,28.76,WNW,293,8.1,8.1,15,0.00,,,0.00,VWS V13.01,2013-01-27 18:43:00,
2013-01-27 12:48:00,32.7,-9.8,28.76,West,277,8.3,8.3,15,0.00,,,0.00,VWS V13.01,2013-01-27 18:48:00,
2013-01-27 12:53:00,32.7,-9.8,28.76,West,270,6.7,6.7,15,0.00,,,0.00,VWS V13.01,2013-01-27 18:53:00,
2013-01-27 12:58:00,32.2,-10.3,28.76,WNW,295,7.6,7.6,15,0.00,,,0.00,VWS V13.01,2013-01-27 18:58:00,
2013-01-27 13:03:00,32.0,-10.4,28.76,West,279,6.3,6.7,15,0.00,,,0.00,VWS V13.01,2013-01-27 19:03:00,
2013-01-27 13:08:00,31.8,-10.6,28.76,West,278,8.1,8.1,15,0.00,,,0.00,VWS V13.01,2013-01-27 19:08:00,
2013-01-27 13:13:00,31.5,-10.9,28.76,West,277,6.3,6.3,15,0.00,,,0.00,VWS V13.01,2013-01-27 19:13:00,
2013-01-27 13:18:00,31.5,-10.9,28.76,West,266,8.1,8.1,15,0.00,,,0.00,VWS V13.01,2013-01-27 19:18:00,
2013-01-27 13:23:00,31.6,-10.7,28.73,WNW,303,5.4,5.4,15,0.00,,,0.00,VWS V13.01,2013-01-27 19:23:00,
2013-01-27 13:28:00,31.5,-7.2,28.73,WNW,289,10.5,10.5,18,0.00,,,0.00,VWS V13.01,2013-01-27 19:28:00,
2013-01-27 13:33:00,31.5,-2.0,28.73,West,270,8.1,10.5,23,0.00,,,0.00,VWS V13.01,2013-01-27 19:33:00,
2013-01-27 13:38:00,31.5,2.1,28.73,WNW,289,8.3,10.1,28,0.00,,,0.00,VWS V13.01,2013-01-27 19:38:00,
2013-01-27 13:43:00,31.5,4.3,28.73,West,261,5.4,6.3,31,0.00,,,0.00,VWS V13.01,2013-01-27 19:43:00,
2013-01-27 13:48:00,31.3,4.9,28.73,West,272,4.9,6.3,32,0.00,,,0.00,VWS V13.01,2013-01-27 19:48:00,
2013-01-27 13:53:00,31.3,4.9,28.73,West,271,5.8,6.3,32,0.00,,,0.00,VWS V13.01,2013-01-27 19:53:00,
2013-01-27 13:58:00,31.3,4.9,28.73,WNW,282,5.4,6.3,32,0.00,,,0.00,VWS V13.01,2013-01-27 19:58:00,
2013-01-27 14:03:00,31.3,6.2,28.73,West,279,4.0,5.4,34,0.00,,,0.00,VWS V13.01,2013-01-27 20:03:00,
2013-01-27 14:08:00,31.3,6.2,28.70,West,267,3.1,3.1,34,0.00,,,0.00,VWS V13.01,2013-01-27 20:08:00,
2013-01-27 14:13:00,31.1,7.3,28.70,WSW,245,5.4,6.7,36,0.00,,,0.00,VWS V13.01,2013-01-27 20:13:00,
2013-01-27 14:18:00,31.3,8.6,28.70,West,269,6.3,6.7,38,0.00,,,0.00,VWS V13.01,2013-01-27 20:18:00,
2013-01-27 14:23:00,31.3,9.2,28.70,West,262,5.4,5.4,39,0.00,,,0.00,VWS V13.01,2013-01-27 20:23:00,
2013-01-27 14:28:00,31.6,10.1,28.70,West,267,2.2,3.1,40,0.00,,,0.00,VWS V13.01,2013-01-27 20:28:00,
2013-01-27 14:33:00,31.6,10.1,28.70,West,259,3.6,3.6,40,0.00,,,0.00,VWS V13.01,2013-01-27 20:33:00,
2013-01-27 14:38:00,31.8,10.8,28.70,WSW,253,0.0,3.1,41,0.00,,,0.00,VWS V13.01,2013-01-27 20:38:00,
2013-01-27 14:43:00,31.6,10.6,28.70,SW,227,3.6,4.0,41,0.00,,,0.00,VWS V13.01,2013-01-27 20:43:00,
2013-01-27 14:48:00,31.6,10.6,28.70,WSW,245,3.6,6.3,41,0.00,,,0.00,VWS V13.01,2013-01-27 20:48:00,
2013-01-27 14:53:00,31.8,10.8,28.70,West,271,4.0,4.0,41,0.00,,,0.00,VWS V13.01,2013-01-27 20:53:00,
2013-01-27 14:58:00,32.0,10.4,28.70,WSW,249,2.7,4.9,40,0.00,,,0.00,VWS V13.01,2013-01-27 20:58:00,
2013-01-27 15:03:00,32.0,9.3,28.70,West,277,5.8,5.8,38,0.00,,,0.00,VWS V13.01,2013-01-27 21:03:00,
2013-01-27 15:08:00,32.0,8.7,28.70,WSW,242,5.8,5.8,37,0.00,,,0.00,VWS V13.01,2013-01-27 21:08:00,
2013-01-27 15:13:00,31.6,9.5,28.70,West,269,5.4,5.4,39,0.00,,,0.00,VWS V13.01,2013-01-27 21:13:00,
2013-01-27 15:18:00,31.8,10.3,28.70,West,271,2.7,4.9,40,0.00,,,0.00,VWS V13.01,2013-01-27 21:18:00,
2013-01-27 15:23:00,31.8,10.3,28.70,WSW,251,5.4,5.4,40,0.00,,,0.00,VWS V13.01,2013-01-27 21:23:00,
2013-01-27 15:28:00,31.8,10.3,28.70,West,262,2.7,2.7,40,0.00,,,0.00,VWS V13.01,2013-01-27 21:28:00,
2013-01-27 15:33:00,31.6,10.1,28.70,SW,226,3.6,3.6,40,0.00,,,0.00,VWS V13.01,2013-01-27 21:33:00,
2013-01-27 15:38:00,31.5,9.9,28.70,West,278,3.1,4.0,40,0.00,,,0.00,VWS V13.01,2013-01-27 21:38:00,
2013-01-27 15:43:00,31.5,10.5,28.70,West,271,3.6,3.6,41,0.00,,,0.00,VWS V13.01,2013-01-27 21:43:00,
2013-01-27 15:48:00,31.3,10.3,28.70,West,269,4.9,5.8,41,0.00,,,0.00,VWS V13.01,2013-01-27 21:48:00,
2013-01-27 15:53:00,31.3,10.3,28.70,WSW,255,4.9,6.7,41,0.00,,,0.00,VWS V13.01,2013-01-27 21:53:00,
2013-01-27 15:58:00,31.3,10.3,28.70,WNW,283,2.7,4.9,41,0.00,,,0.00,VWS V13.01,2013-01-27 21:58:00,
2013-01-27 16:03:00,31.5,10.5,28.70,WSW,255,3.1,3.6,41,0.00,,,0.00,VWS V13.01,2013-01-27 22:03:00,
2013-01-27 16:08:00,31.5,10.5,28.70,SW,236,2.7,3.6,41,0.00,,,0.00,VWS V13.01,2013-01-27 22:08:00,
2013-01-27 16:13:00,31.3,9.8,28.70,WSW,253,5.8,7.6,40,0.00,,,0.00,VWS V13.01,2013-01-27 22:13:00,
2013-01-27 16:18:00,31.3,9.8,28.70,West,272,5.8,5.8,40,0.00,,,0.00,VWS V13.01,2013-01-27 22:18:00,
2013-01-27 16:23:00,31.3,9.8,28.70,SW,221,4.0,4.0,40,0.00,,,0.00,VWS V13.01,2013-01-27 22:23:00,
2013-01-27 16:28:00,31.3,9.8,28.70,West,267,3.1,3.6,40,0.00,,,0.00,VWS V13.01,2013-01-27 22:28:00,
2013-01-27 16:33:00,31.3,9.8,28.70,West,270,3.6,7.6,40,0.00,,,0.00,VWS V13.01,2013-01-27 22:33:00,
2013-01-27 16:38:00,31.3,9.8,28.70,WSW,257,2.7,6.3,40,0.00,,,0.00,VWS V13.01,2013-01-27 22:38:00,
2013-01-27 16:43:00,31.1,9.6,28.70,WSW,246,3.6,3.6,40,0.00,,,0.00,VWS V13.01,2013-01-27 22:43:00,
2013-01-27 16:48:00,31.1,9.6,28.70,WSW,253,3.6,4.0,40,0.00,,,0.00,VWS V13.01,2013-01-27 22:48:00,
2013-01-27 16:53:00,31.1,9.6,28.70,West,275,2.7,2.7,40,0.00,,,0.00,VWS V13.01,2013-01-27 22:53:00,
2013-01-27 16:58:00,31.3,9.8,28.70,West,264,4.0,4.0,40,0.00,,,0.00,VWS V13.01,2013-01-27 22:58:00,
2013-01-27 17:03:00,31.1,9.6,28.70,WSW,242,0.0,0.0,40,0.00,,,0.00,VWS V13.01,2013-01-27 23:03:00,
2013-01-27 17:08:00,31.1,9.6,28.70,WSW,250,0.0,0.0,40,0.00,,,0.00,VWS V13.01,2013-01-27 23:08:00,
2013-01-27 17:13:00,31.1,10.2,28.70,WSW,249,0.0,2.7,41,0.00,,,0.00,VWS V13.01,2013-01-27 23:13:00,
2013-01-27 17:18:00,31.1,10.2,28.70,WSW,248,2.7,2.7,41,0.00,,,0.00,VWS V13.01,2013-01-27 23:18:00,
2013-01-27 17:23:00,31.1,10.2,28.67,West,279,5.4,5.4,41,0.00,,,0.00,VWS V13.01,2013-01-27 23:23:00,
2013-01-27 17:28:00,31.1,10.2,28.67,West,261,2.7,3.1,41,0.00,,,0.00,VWS V13.01,2013-01-27 23:28:00,
2013-01-27 17:33:00,31.3,10.3,28.67,WSW,239,3.1,3.6,41,0.00,,,0.00,VWS V13.01,2013-01-27 23:33:00,
2013-01-27 17:38:00,31.3,10.3,28.67,SW,227,2.7,4.0,41,0.00,,,0.00,VWS V13.01,2013-01-27 23:38:00,
2013-01-27 17:43:00,31.1,10.2,28.67,WSW,247,2.7,2.7,41,0.00,,,0.00,VWS V13.01,2013-01-27 23:43:00,
2013-01-27 17:48:00,31.3,10.3,28.67,WSW,247,2.7,3.1,41,0.00,,,0.00,VWS V13.01,2013-01-27 23:48:00,
2013-01-27 17:53:00,31.3,10.3,28.67,West,267,0.0,0.0,41,0.00,,,0.00,VWS V13.01,2013-01-27 23:53:00,
2013-01-27 17:58:00,31.3,10.3,28.67,West,265,2.7,2.7,41,0.00,,,0.00,VWS V13.01,2013-01-27 23:58:00,
2013-01-27 18:03:00,31.3,10.3,28.67,WSW,251,4.0,4.0,41,0.00,,,0.00,VWS V13.01,2013-01-28 00:03:00,
2013-01-27 18:08:00,31.3,10.9,28.67,West,263,0.0,3.1,42,0.00,,,0.00,VWS V13.01,2013-01-28 00:08:00,
2013-01-27 18:13:00,31.3,10.9,28.67,SW,228,2.7,3.6,42,0.00,,,0.00,VWS V13.01,2013-01-28 00:13:00,
2013-01-27 18:18:00,31.3,10.9,28.67,SW,232,0.0,0.0,42,0.00,,,0.00,VWS V13.01,2013-01-28 00:18:00,
2013-01-27 18:23:00,31.3,10.9,28.67,WSW,241,0.0,0.0,42,0.00,,,0.00,VWS V13.01,2013-01-28 00:23:00,
2013-01-27 18:28:00,31.3,10.9,28.67,West,260,0.0,0.0,42,0.00,,,0.00,VWS V13.01,2013-01-28 00:28:00,
2013-01-27 18:33:00,31.3,10.9,28.67,WSW,253,0.0,0.0,42,0.00,,,0.00,VWS V13.01,2013-01-28 00:33:00,
2013-01-27 18:38:00,31.3,10.9,28.67,SW,235,0.0,0.0,42,0.00,,,0.00,VWS V13.01,2013-01-28 00:38:00,
2013-01-27 18:43:00,31.3,10.9,28.67,SW,224,0.0,0.0,42,0.00,,,0.00,VWS V13.01,2013-01-28 00:43:00,
2013-01-27 18:48:00,31.3,11.4,28.67,SW,226,0.0,0.0,43,0.00,,,0.00,VWS V13.01,2013-01-28 00:48:00,
2013-01-27 18:53:00,31.3,11.4,28.67,SW,235,0.0,0.0,43,0.00,,,0.00,VWS V13.01,2013-01-28 00:53:00,
2013-01-27 18:58:00,31.3,11.4,28.67,WSW,244,0.0,0.0,43,0.00,,,0.00,VWS V13.01,2013-01-28 00:58:00,
2013-01-27 19:03:00,31.3,11.4,28.67,WSW,257,0.0,0.0,43,0.00,,,0.00,VWS V13.01,2013-01-28 01:03:00,
2013-01-27 19:08:00,31.3,11.4,28.70,WSW,258,0.0,0.0,43,0.00,,,0.00,VWS V13.01,2013-01-28 01:08:00,
2013-01-27 19:13:00,31.3,11.4,28.70,WSW,240,0.0,0.0,43,0.00,,,0.00,VWS V13.01,2013-01-28 01:13:00,
2013-01-27 19:18:00,31.3,11.4,28.70,WSW,240,0.0,0.0,43,0.00,,,0.00,VWS V13.01,2013-01-28 01:18:00,
2013-01-27 19:23:00,31.5,11.6,28.70,WSW,243,0.0,0.0,43,0.00,,,0.00,VWS V13.01,2013-01-28 01:23:00,
2013-01-27 19:28:00,31.5,12.1,28.70,WSW,243,0.0,0.0,44,0.00,,,0.00,VWS V13.01,2013-01-28 01:28:00,
2013-01-27 19:33:00,31.5,12.1,28.70,SW,235,0.0,0.0,44,0.00,,,0.00,VWS V13.01,2013-01-28 01:33:00,
2013-01-27 19:38:00,31.5,12.1,28.70,SW,236,0.0,0.0,44,0.00,,,0.00,VWS V13.01,2013-01-28 01:38:00,
2013-01-27 19:43:00,31.5,12.1,28.70,SW,236,0.0,0.0,44,0.00,,,0.00,VWS V13.01,2013-01-28 01:43:00,
2013-01-27 19:48:00,31.5,12.1,28.70,SW,236,0.0,0.0,44,0.00,,,0.00,VWS V13.01,2013-01-28 01:48:00,
2013-01-27 19:53:00,31.5,12.1,28.67,SW,236,0.0,0.0,44,0.00,,,0.00,VWS V13.01,2013-01-28 01:53:00,
2013-01-27 19:58:00,31.6,12.2,28.67,SW,234,0.0,0.0,44,0.00,,,0.00,VWS V13.01,2013-01-28 01:58:00,
2013-01-27 20:03:00,31.6,12.2,28.67,SW,228,0.0,0.0,44,0.00,,,0.00,VWS V13.01,2013-01-28 02:03:00,
2013-01-27 20:08:00,31.6,12.2,28.67,SW,215,0.0,0.0,44,0.00,,,0.00,VWS V13.01,2013-01-28 02:08:00,
2013-01-27 20:13:00,31.6,12.2,28.67,SSW,210,0.0,0.0,44,0.00,,,0.00,VWS V13.01,2013-01-28 02:13:00,
2013-01-27 20:18:00,31.6,12.8,28.67,SW,214,0.0,0.0,45,0.00,,,0.00,VWS V13.01,2013-01-28 02:18:00,
2013-01-27 20:23:00,31.8,12.9,28.67,SW,215,2.7,2.7,45,0.00,,,0.00,VWS V13.01,2013-01-28 02:23:00,
2013-01-27 20:28:00,31.8,12.9,28.67,South,189,0.0,3.1,45,0.00,,,0.00,VWS V13.01,2013-01-28 02:28:00,
2013-01-27 20:33:00,31.8,12.9,28.67,SW,218,0.0,0.0,45,0.00,,,0.00,VWS V13.01,2013-01-28 02:33:00,
2013-01-27 20:38:00,31.8,12.9,28.67,SSW,207,0.0,0.0,45,0.00,,,0.00,VWS V13.01,2013-01-28 02:38:00,
2013-01-27 20:43:00,31.8,12.9,28.67,SSW,208,0.0,0.0,45,0.00,,,0.00,VWS V13.01,2013-01-28 02:43:00,
2013-01-27 20:48:00,32.0,13.6,28.67,SSW,207,3.1,3.1,46,0.00,,,0.00,VWS V13.01,2013-01-28 02:48:00,
2013-01-27 20:53:00,31.8,13.4,28.67,SSW,209,0.0,0.0,46,0.00,,,0.00,VWS V13.01,2013-01-28 02:53:00,
2013-01-27 20:58:00,31.8,13.4,28.67,SSW,209,0.0,0.0,46,0.00,,,0.00,VWS V13.01,2013-01-28 02:58:00,
2013-01-27 21:03:00,31.8,13.4,28.67,SSW,208,0.0,0.0,46,0.00,,,0.00,VWS V13.01,2013-01-28 03:03:00,
2013-01-27 21:08:00,31.8,13.4,28.67,SSW,208,0.0,0.0,46,0.00,,,0.00,VWS V13.01,2013-01-28 03:08:00,
2013-01-27 21:13:00,31.8,13.4,28.67,SSW,208,0.0,0.0,46,0.00,,,0.00,VWS V13.01,2013-01-28 03:13:00,
2013-01-27 21:18:00,31.8,13.4,28.67,SSW,208,0.0,0.0,46,0.00,,,0.00,VWS V13.01,2013-01-28 03:18:00,
2013-01-27 21:23:00,31.8,13.4,28.67,SSW,208,0.0,0.0,46,0.00,,,0.00,VWS V13.01,2013-01-28 03:23:00,
2013-01-27 21:28:00,31.8,13.4,28.67,SSW,199,0.0,0.0,46,0.00,,,0.00,VWS V13.01,2013-01-28 03:28:00,
2013-01-27 21:33:00,32.0,13.6,28.67,SSW,207,0.0,0.0,46,0.00,,,0.00,VWS V13.01,2013-01-28 03:33:00,
2013-01-27 21:38:00,32.0,13.6,28.67,SW,216,0.0,2.7,46,0.00,,,0.00,VWS V13.01,2013-01-28 03:38:00,
2013-01-27 21:43:00,32.0,14.1,28.67,SSW,207,0.0,0.0,47,0.00,,,0.00,VWS V13.01,2013-01-28 03:43:00,
2013-01-27 21:48:00,32.0,14.1,28.67,SSW,207,0.0,0.0,47,0.00,,,0.00,VWS V13.01,2013-01-28 03:48:00,
2013-01-27 21:53:00,32.0,14.1,28.67,SSW,207,0.0,0.0,47,0.00,,,0.00,VWS V13.01,2013-01-28 03:53:00,
2013-01-27 21:58:00,31.8,13.9,28.67,SW,228,0.0,0.0,47,0.00,,,0.00,VWS V13.01,2013-01-28 03:58:00,
2013-01-27 22:03:00,32.0,14.1,28.67,WSW,238,0.0,0.0,47,0.00,,,0.00,VWS V13.01,2013-01-28 04:03:00,
2013-01-27 22:08:00,31.8,13.9,28.67,WSW,238,0.0,0.0,47,0.00,,,0.00,VWS V13.01,2013-01-28 04:08:00,
2013-01-27 22:13:00,31.8,13.9,28.67,WSW,242,0.0,0.0,47,0.00,,,0.00,VWS V13.01,2013-01-28 04:13:00,
2013-01-27 22:18:00,32.0,14.1,28.67,SW,221,0.0,0.0,47,0.00,,,0.00,VWS V13.01,2013-01-28 04:18:00,
2013-01-27 22:23:00,32.0,14.6,28.67,SW,221,0.0,0.0,48,0.00,,,0.00,VWS V13.01,2013-01-28 04:23:00,
2013-01-27 22:28:00,32.0,14.6,28.67,SSW,207,0.0,0.0,48,0.00,,,0.00,VWS V13.01,2013-01-28 04:28:00,
2013-01-27 22:33:00,32.0,14.6,28.67,SSW,207,0.0,0.0,48,0.00,,,0.00,VWS V13.01,2013-01-28 04:33:00,
2013-01-27 22:38:00,32.0,14.6,28.64,SSW,212,0.0,2.7,48,0.00,,,0.00,VWS V13.01,2013-01-28 04:38:00,
2013-01-27 22:43:00,32.2,14.7,28.64,SSW,207,0.0,0.0,48,0.00,,,0.00,VWS V13.01,2013-01-28 04:43:00,
2013-01-27 22:48:00,32.0,14.6,28.64,SSW,209,0.0,0.0,48,0.00,,,0.00,VWS V13.01,2013-01-28 04:48:00,
2013-01-27 22:53:00,32.2,14.7,28.64,SSW,199,0.0,0.0,48,0.00,,,0.00,VWS V13.01,2013-01-28 04:53:00,
2013-01-27 22:58:00,32.0,15.0,28.64,South,183,0.0,0.0,49,0.00,,,0.00,VWS V13.01,2013-01-28 04:58:00,
2013-01-27 23:00:00,32.0,15.0,28.64,South,186,0.0,0.0,49,0.00,,,0.00,VWS V13.01,2013-01-28 05:00:00,
2013-01-27 23:01:00,32.0,15.0,28.64,SSW,204,0.0,0.0,49,0.00,,,0.00,VWS V13.01,2013-01-28 05:01:00,
2013-01-27 23:03:00,32.0,15.0,28.64,SSW,203,0.0,0.0,49,0.00,,,0.00,VWS V13.01,2013-01-28 05:03:00,
2013-01-27 23:08:00,32.0,15.0,28.64,SSW,204,0.0,0.0,49,0.00,,,0.00,VWS V13.01,2013-01-28 05:08:00,
2013-01-27 23:13:00,32.0,15.0,28.67,SSW,204,0.0,0.0,49,0.00,,,0.00,VWS V13.01,2013-01-28 05:13:00,
2013-01-27 23:18:00,32.0,15.0,28.67,SSW,204,0.0,0.0,49,0.00,,,0.00,VWS V13.01,2013-01-28 05:18:00,
2013-01-27 23:23:00,32.0,15.0,28.67,SSW,203,0.0,0.0,49,0.00,,,0.00,VWS V13.01,2013-01-28 05:23:00,
2013-01-27 23:28:00,32.0,15.0,28.67,SSW,203,0.0,0.0,49,0.00,,,0.00,VWS V13.01,2013-01-28 05:28:00,
2013-01-27 23:33:00,32.0,15.0,28.67,SSW,203,0.0,0.0,49,0.00,,,0.00,VWS V13.01,2013-01-28 05:33:00,
2013-01-27 23:38:00,31.8,14.9,28.67,SSW,204,0.0,0.0,49,0.00,,,0.00,VWS V13.01,2013-01-28 05:38:00,
2013-01-27 23:43:00,31.8,14.9,28.67,SSW,203,0.0,0.0,49,0.00,,,0.00,VWS V13.01,2013-01-28 05:43:00,
2013-01-27 23:48:00,31.6,14.7,28.67,SSW,202,0.0,0.0,49,0.00,,,0.00,VWS V13.01,2013-01-28 05:48:00,
2013-01-27 23:53:00,31.6,14.7,28.67,SSW,200,0.0,0.0,49,0.00,,,0.00,VWS V13.01,2013-01-28 05:53:00,
2013-01-27 23:58:00,31.5,14.5,28.64,SSW,201,0.0,0.0,49,0.00,,,0.00,VWS V13.01,2013-01-28 05:58:00,